sensor_id;sensor_type;location;lat;lon;timestamp;temperature;humidity
15099;DHT22;33900;53.640;9.942;2023-04-24T00:01:22;17.00;85.10
15099;DHT22;33900;53.640;9.942;2023-04-24T00:03:47;17.00;85.00
15099;DHT22;33900;53.640;9.942;2023-04-24T00:06:13;17.00;84.80
15099;DHT22;33900;53.640;9.942;2023-04-24T00:08:39;16.90;84.80
15099;DHT22;33900;53.640;9.942;2023-04-24T00:11:05;16.90;84.70
15099;DHT22;33900;53.640;9.942;2023-04-24T00:13:30;16.90;84.80
15099;DHT22;33900;53.640;9.942;2023-04-24T00:15:56;16.90;84.80
15099;DHT22;33900;53.640;9.942;2023-04-24T00:18:22;16.90;84.80
15099;DHT22;33900;53.640;9.942;2023-04-24T00:20:47;16.80;84.70
15099;DHT22;33900;53.640;9.942;2023-04-24T00:23:13;16.80;84.70
15099;DHT22;33900;53.640;9.942;2023-04-24T00:25:39;16.80;84.80
15099;DHT22;33900;53.640;9.942;2023-04-24T00:28:05;16.70;84.80
15099;DHT22;33900;53.640;9.942;2023-04-24T00:30:31;16.70;84.80
15099;DHT22;33900;53.640;9.942;2023-04-24T00:32:57;16.70;84.80
15099;DHT22;33900;53.640;9.942;2023-04-24T00:35:23;16.60;84.80
15099;DHT22;33900;53.640;9.942;2023-04-24T00:37:49;16.60;84.90
15099;DHT22;33900;53.640;9.942;2023-04-24T00:40:16;16.60;85.00
15099;DHT22;33900;53.640;9.942;2023-04-24T00:42:41;16.50;85.00
15099;DHT22;33900;53.640;9.942;2023-04-24T00:45:09;16.50;85.10
15099;DHT22;33900;53.640;9.942;2023-04-24T00:47:35;16.40;85.90
15099;DHT22;33900;53.640;9.942;2023-04-24T00:50:04;16.40;85.30
15099;DHT22;33900;53.640;9.942;2023-04-24T00:52:30;16.40;85.30
15099;DHT22;33900;53.640;9.942;2023-04-24T00:54:59;16.40;85.40
15099;DHT22;33900;53.640;9.942;2023-04-24T00:57:24;16.40;85.50
15099;DHT22;33900;53.640;9.942;2023-04-24T00:59:51;16.30;85.50
15099;DHT22;33900;53.640;9.942;2023-04-24T01:02:17;16.30;85.40
15099;DHT22;33900;53.640;9.942;2023-04-24T01:04:43;16.30;85.40
15099;DHT22;33900;53.640;9.942;2023-04-24T01:07:09;16.30;85.40
15099;DHT22;33900;53.640;9.942;2023-04-24T01:09:38;16.30;85.60
15099;DHT22;33900;53.640;9.942;2023-04-24T01:12:05;16.20;85.70
15099;DHT22;33900;53.640;9.942;2023-04-24T01:14:33;16.20;85.70
15099;DHT22;33900;53.640;9.942;2023-04-24T01:16:59;16.20;85.70
15099;DHT22;33900;53.640;9.942;2023-04-24T01:19:27;16.20;85.70
15099;DHT22;33900;53.640;9.942;2023-04-24T01:21:53;16.10;85.70
15099;DHT22;33900;53.640;9.942;2023-04-24T01:24:19;16.10;85.60
15099;DHT22;33900;53.640;9.942;2023-04-24T01:26:46;16.10;85.70
15099;DHT22;33900;53.640;9.942;2023-04-24T01:29:11;16.10;85.80
15099;DHT22;33900;53.640;9.942;2023-04-24T01:31:38;16.10;85.80
15099;DHT22;33900;53.640;9.942;2023-04-24T01:34:03;16.10;86.00
15099;DHT22;33900;53.640;9.942;2023-04-24T01:36:29;16.10;85.80
15099;DHT22;33900;53.640;9.942;2023-04-24T01:38:56;16.10;85.70
15099;DHT22;33900;53.640;9.942;2023-04-24T01:41:25;16.10;85.80
15099;DHT22;33900;53.640;9.942;2023-04-24T01:43:50;16.10;85.70
15099;DHT22;33900;53.640;9.942;2023-04-24T01:46:19;16.10;85.80
15099;DHT22;33900;53.640;9.942;2023-04-24T01:48:45;16.10;85.80
15099;DHT22;33900;53.640;9.942;2023-04-24T01:51:11;16.00;85.70
15099;DHT22;33900;53.640;9.942;2023-04-24T01:53:36;16.10;85.80
15099;DHT22;33900;53.640;9.942;2023-04-24T01:56:02;16.00;86.10
15099;DHT22;33900;53.640;9.942;2023-04-24T01:58:28;16.00;86.00
15099;DHT22;33900;53.640;9.942;2023-04-24T02:00:58;16.00;86.00
15099;DHT22;33900;53.640;9.942;2023-04-24T02:03:26;16.00;86.00
15099;DHT22;33900;53.640;9.942;2023-04-24T02:05:52;15.90;85.80
15099;DHT22;33900;53.640;9.942;2023-04-24T02:08:18;16.00;86.10
15099;DHT22;33900;53.640;9.942;2023-04-24T02:10:43;16.00;86.10
15099;DHT22;33900;53.640;9.942;2023-04-24T02:13:09;15.90;86.00
15099;DHT22;33900;53.640;9.942;2023-04-24T02:15:35;16.00;86.10
15099;DHT22;33900;53.640;9.942;2023-04-24T02:18:02;15.90;86.20
15099;DHT22;33900;53.640;9.942;2023-04-24T02:20:31;15.90;86.20
15099;DHT22;33900;53.640;9.942;2023-04-24T02:22:59;15.90;86.00
15099;DHT22;33900;53.640;9.942;2023-04-24T02:25:25;15.80;85.90
15099;DHT22;33900;53.640;9.942;2023-04-24T02:27:54;15.80;85.90
15099;DHT22;33900;53.640;9.942;2023-04-24T02:33:48;15.80;85.70
15099;DHT22;33900;53.640;9.942;2023-04-24T02:36:14;15.70;85.50
15099;DHT22;33900;53.640;9.942;2023-04-24T02:38:39;15.70;85.50
15099;DHT22;33900;53.640;9.942;2023-04-24T02:41:05;15.70;85.40
15099;DHT22;33900;53.640;9.942;2023-04-24T02:43:32;15.70;85.50
15099;DHT22;33900;53.640;9.942;2023-04-24T02:45:58;15.60;85.30
15099;DHT22;33900;53.640;9.942;2023-04-24T02:48:24;15.60;85.30
15099;DHT22;33900;53.640;9.942;2023-04-24T02:50:50;15.60;85.20
15099;DHT22;33900;53.640;9.942;2023-04-24T02:53:16;15.60;85.10
15099;DHT22;33900;53.640;9.942;2023-04-24T02:55:42;15.60;85.10
15099;DHT22;33900;53.640;9.942;2023-04-24T02:58:08;15.50;85.00
15099;DHT22;33900;53.640;9.942;2023-04-24T03:00:34;15.50;85.00
15099;DHT22;33900;53.640;9.942;2023-04-24T03:03:00;15.40;84.90
15099;DHT22;33900;53.640;9.942;2023-04-24T03:05:25;15.50;85.00
15099;DHT22;33900;53.640;9.942;2023-04-24T03:07:52;15.50;85.10
15099;DHT22;33900;53.640;9.942;2023-04-24T03:10:20;15.50;85.10
15099;DHT22;33900;53.640;9.942;2023-04-24T03:12:48;15.50;85.10
15099;DHT22;33900;53.640;9.942;2023-04-24T03:15:13;15.40;85.10
15099;DHT22;33900;53.640;9.942;2023-04-24T03:17:40;15.40;85.20
15099;DHT22;33900;53.640;9.942;2023-04-24T03:20:06;15.40;85.20
15099;DHT22;33900;53.640;9.942;2023-04-24T03:22:33;15.40;85.30
15099;DHT22;33900;53.640;9.942;2023-04-24T03:25:04;15.30;85.30
15099;DHT22;33900;53.640;9.942;2023-04-24T03:27:30;15.40;85.30
15099;DHT22;33900;53.640;9.942;2023-04-24T03:30:00;15.30;85.30
15099;DHT22;33900;53.640;9.942;2023-04-24T03:32:36;15.30;85.30
15099;DHT22;33900;53.640;9.942;2023-04-24T03:35:02;15.30;85.30
15099;DHT22;33900;53.640;9.942;2023-04-24T03:37:29;15.30;85.40
15099;DHT22;33900;53.640;9.942;2023-04-24T03:40:15;15.30;85.50
15099;DHT22;33900;53.640;9.942;2023-04-24T03:42:41;15.20;85.50
15099;DHT22;33900;53.640;9.942;2023-04-24T03:45:07;15.20;85.30
15099;DHT22;33900;53.640;9.942;2023-04-24T03:47:36;15.20;85.30
15099;DHT22;33900;53.640;9.942;2023-04-24T03:50:04;15.20;85.20
15099;DHT22;33900;53.640;9.942;2023-04-24T03:52:30;15.20;85.20
15099;DHT22;33900;53.640;9.942;2023-04-24T03:54:56;15.20;85.20
15099;DHT22;33900;53.640;9.942;2023-04-24T03:57:23;15.10;85.10
15099;DHT22;33900;53.640;9.942;2023-04-24T04:00:04;15.00;85.10
15099;DHT22;33900;53.640;9.942;2023-04-24T04:02:40;15.10;85.10
15099;DHT22;33900;53.640;9.942;2023-04-24T04:05:07;15.10;85.10
15099;DHT22;33900;53.640;9.942;2023-04-24T04:07:33;15.10;85.10
15099;DHT22;33900;53.640;9.942;2023-04-24T04:09:59;15.00;85.10
15099;DHT22;33900;53.640;9.942;2023-04-24T04:12:25;15.00;85.10
15099;DHT22;33900;53.640;9.942;2023-04-24T04:14:51;15.00;85.10
15099;DHT22;33900;53.640;9.942;2023-04-24T04:17:17;14.90;84.90
15099;DHT22;33900;53.640;9.942;2023-04-24T04:19:44;15.00;84.80
15099;DHT22;33900;53.640;9.942;2023-04-24T04:22:13;14.90;84.70
15099;DHT22;33900;53.640;9.942;2023-04-24T04:24:43;14.90;84.60
15099;DHT22;33900;53.640;9.942;2023-04-24T04:27:09;14.90;84.40
15099;DHT22;33900;53.640;9.942;2023-04-24T04:29:46;14.90;84.40
15099;DHT22;33900;53.640;9.942;2023-04-24T04:32:14;14.90;84.20
15099;DHT22;33900;53.640;9.942;2023-04-24T04:34:41;14.90;84.90
15099;DHT22;33900;53.640;9.942;2023-04-24T04:37:10;14.80;83.90
15099;DHT22;33900;53.640;9.942;2023-04-24T04:40:06;14.80;83.70
15099;DHT22;33900;53.640;9.942;2023-04-24T04:42:38;14.80;83.70
15099;DHT22;33900;53.640;9.942;2023-04-24T04:45:06;14.80;83.60
15099;DHT22;33900;53.640;9.942;2023-04-24T04:47:43;14.80;83.60
15099;DHT22;33900;53.640;9.942;2023-04-24T04:50:09;14.80;83.60
15099;DHT22;33900;53.640;9.942;2023-04-24T04:52:35;14.80;83.60
15099;DHT22;33900;53.640;9.942;2023-04-24T04:55:15;14.80;83.70
15099;DHT22;33900;53.640;9.942;2023-04-24T04:58:01;14.80;83.50
15099;DHT22;33900;53.640;9.942;2023-04-24T05:00:27;14.80;83.30
15099;DHT22;33900;53.640;9.942;2023-04-24T05:02:54;14.80;83.20
15099;DHT22;33900;53.640;9.942;2023-04-24T05:05:20;14.80;83.10
15099;DHT22;33900;53.640;9.942;2023-04-24T05:07:45;14.80;83.10
15099;DHT22;33900;53.640;9.942;2023-04-24T05:10:12;14.80;83.00
15099;DHT22;33900;53.640;9.942;2023-04-24T05:12:38;14.90;83.00
15099;DHT22;33900;53.640;9.942;2023-04-24T05:15:05;14.90;82.90
15099;DHT22;33900;53.640;9.942;2023-04-24T05:17:31;14.80;82.70
15099;DHT22;33900;53.640;9.942;2023-04-24T05:19:58;14.90;82.70
15099;DHT22;33900;53.640;9.942;2023-04-24T05:22:24;14.80;82.60
15099;DHT22;33900;53.640;9.942;2023-04-24T05:24:51;14.90;82.60
15099;DHT22;33900;53.640;9.942;2023-04-24T05:27:35;14.90;82.50
15099;DHT22;33900;53.640;9.942;2023-04-24T05:30:05;14.80;82.30
15099;DHT22;33900;53.640;9.942;2023-04-24T05:32:31;14.90;82.30
15099;DHT22;33900;53.640;9.942;2023-04-24T05:34:56;14.90;82.20
15099;DHT22;33900;53.640;9.942;2023-04-24T05:37:22;14.90;82.10
15099;DHT22;33900;53.640;9.942;2023-04-24T05:39:48;14.90;82.00
15099;DHT22;33900;53.640;9.942;2023-04-24T05:42:13;14.90;82.00
15099;DHT22;33900;53.640;9.942;2023-04-24T05:44:39;15.00;82.10
15099;DHT22;33900;53.640;9.942;2023-04-24T05:47:05;15.00;82.10
15099;DHT22;33900;53.640;9.942;2023-04-24T05:49:31;15.00;81.90
15099;DHT22;33900;53.640;9.942;2023-04-24T05:51:57;15.00;81.60
15099;DHT22;33900;53.640;9.942;2023-04-24T05:54:23;15.00;81.50
15099;DHT22;33900;53.640;9.942;2023-04-24T05:56:49;15.00;81.50
15099;DHT22;33900;53.640;9.942;2023-04-24T05:59:23;15.00;81.30
15099;DHT22;33900;53.640;9.942;2023-04-24T06:01:51;15.10;81.40
15099;DHT22;33900;53.640;9.942;2023-04-24T06:04:19;15.00;81.30
15099;DHT22;33900;53.640;9.942;2023-04-24T06:06:45;15.10;81.30
15099;DHT22;33900;53.640;9.942;2023-04-24T06:09:11;15.10;81.10
15099;DHT22;33900;53.640;9.942;2023-04-24T06:11:38;15.10;81.00
15099;DHT22;33900;53.640;9.942;2023-04-24T06:14:05;15.10;81.00
15099;DHT22;33900;53.640;9.942;2023-04-24T06:16:37;15.20;80.90
15099;DHT22;33900;53.640;9.942;2023-04-24T06:19:13;15.20;80.90
15099;DHT22;33900;53.640;9.942;2023-04-24T06:21:40;15.20;80.60
15099;DHT22;33900;53.640;9.942;2023-04-24T06:24:05;15.20;80.10
15099;DHT22;33900;53.640;9.942;2023-04-24T06:26:31;15.20;80.00
15099;DHT22;33900;53.640;9.942;2023-04-24T06:28:57;15.20;80.10
15099;DHT22;33900;53.640;9.942;2023-04-24T06:31:24;15.30;80.30
15099;DHT22;33900;53.640;9.942;2023-04-24T06:33:50;15.30;80.30
15099;DHT22;33900;53.640;9.942;2023-04-24T06:36:16;15.30;80.10
15099;DHT22;33900;53.640;9.942;2023-04-24T06:38:42;15.30;80.00
15099;DHT22;33900;53.640;9.942;2023-04-24T06:41:07;15.40;80.00
15099;DHT22;33900;53.640;9.942;2023-04-24T06:43:33;15.40;80.00
15099;DHT22;33900;53.640;9.942;2023-04-24T06:45:59;15.40;80.00
15099;DHT22;33900;53.640;9.942;2023-04-24T06:48:25;15.40;79.90
15099;DHT22;33900;53.640;9.942;2023-04-24T06:50:51;15.50;79.80
15099;DHT22;33900;53.640;9.942;2023-04-24T06:53:17;15.60;79.70
15099;DHT22;33900;53.640;9.942;2023-04-24T06:55:43;15.60;79.70
15099;DHT22;33900;53.640;9.942;2023-04-24T06:58:10;15.60;79.50
15099;DHT22;33900;53.640;9.942;2023-04-24T07:00:36;15.70;79.60
15099;DHT22;33900;53.640;9.942;2023-04-24T07:03:01;15.70;79.30
15099;DHT22;33900;53.640;9.942;2023-04-24T07:05:27;15.80;79.20
15099;DHT22;33900;53.640;9.942;2023-04-24T07:07:53;15.80;78.70
15099;DHT22;33900;53.640;9.942;2023-04-24T07:10:19;15.80;78.70
15099;DHT22;33900;53.640;9.942;2023-04-24T07:12:45;15.90;78.50
15099;DHT22;33900;53.640;9.942;2023-04-24T07:15:12;15.90;78.40
15099;DHT22;33900;53.640;9.942;2023-04-24T07:17:37;15.90;78.30
15099;DHT22;33900;53.640;9.942;2023-04-24T07:20:09;16.00;77.90
15099;DHT22;33900;53.640;9.942;2023-04-24T07:22:36;16.00;77.50
15099;DHT22;33900;53.640;9.942;2023-04-24T07:25:02;16.00;77.50
15099;DHT22;33900;53.640;9.942;2023-04-24T07:27:28;16.00;77.20
15099;DHT22;33900;53.640;9.942;2023-04-24T07:29:54;16.10;77.10
15099;DHT22;33900;53.640;9.942;2023-04-24T07:32:20;16.10;76.80
15099;DHT22;33900;53.640;9.942;2023-04-24T07:34:45;16.10;76.20
15099;DHT22;33900;53.640;9.942;2023-04-24T07:37:11;16.10;76.10
15099;DHT22;33900;53.640;9.942;2023-04-24T07:39:41;16.10;76.10
15099;DHT22;33900;53.640;9.942;2023-04-24T07:42:09;16.10;76.20
15099;DHT22;33900;53.640;9.942;2023-04-24T07:44:35;16.10;76.20
15099;DHT22;33900;53.640;9.942;2023-04-24T07:47:01;16.20;76.20
15099;DHT22;33900;53.640;9.942;2023-04-24T07:49:27;16.20;76.20
15099;DHT22;33900;53.640;9.942;2023-04-24T07:51:53;16.20;76.00
15099;DHT22;33900;53.640;9.942;2023-04-24T07:54:19;16.20;75.60
15099;DHT22;33900;53.640;9.942;2023-04-24T07:56:45;16.20;75.60
15099;DHT22;33900;53.640;9.942;2023-04-24T07:59:11;16.20;75.10
15099;DHT22;33900;53.640;9.942;2023-04-24T08:01:36;16.20;74.60
15099;DHT22;33900;53.640;9.942;2023-04-24T08:04:02;16.20;74.70
15099;DHT22;33900;53.640;9.942;2023-04-24T08:06:28;16.20;74.80
15099;DHT22;33900;53.640;9.942;2023-04-24T08:08:56;16.20;74.90
15099;DHT22;33900;53.640;9.942;2023-04-24T08:11:21;16.20;75.00
15099;DHT22;33900;53.640;9.942;2023-04-24T08:13:47;16.20;75.10
15099;DHT22;33900;53.640;9.942;2023-04-24T08:16:13;16.20;75.30
15099;DHT22;33900;53.640;9.942;2023-04-24T08:18:39;16.30;75.60
15099;DHT22;33900;53.640;9.942;2023-04-24T08:21:04;16.30;76.20
15099;DHT22;33900;53.640;9.942;2023-04-24T08:23:30;16.40;76.10
15099;DHT22;33900;53.640;9.942;2023-04-24T08:25:56;16.50;76.00
15099;DHT22;33900;53.640;9.942;2023-04-24T08:28:22;16.60;75.80
15099;DHT22;33900;53.640;9.942;2023-04-24T08:30:50;16.60;75.20
15099;DHT22;33900;53.640;9.942;2023-04-24T08:33:23;16.60;74.60
15099;DHT22;33900;53.640;9.942;2023-04-24T08:35:48;16.60;74.50
15099;DHT22;33900;53.640;9.942;2023-04-24T08:38:14;16.70;74.30
15099;DHT22;33900;53.640;9.942;2023-04-24T08:40:40;16.60;74.30
15099;DHT22;33900;53.640;9.942;2023-04-24T08:43:06;16.70;74.20
15099;DHT22;33900;53.640;9.942;2023-04-24T08:45:33;16.70;74.20
15099;DHT22;33900;53.640;9.942;2023-04-24T08:47:59;16.60;74.10
15099;DHT22;33900;53.640;9.942;2023-04-24T08:50:28;16.70;74.30
15099;DHT22;33900;53.640;9.942;2023-04-24T08:52:56;16.70;74.30
15099;DHT22;33900;53.640;9.942;2023-04-24T08:55:22;16.70;73.90
15099;DHT22;33900;53.640;9.942;2023-04-24T08:57:52;16.60;73.40
15099;DHT22;33900;53.640;9.942;2023-04-24T09:00:20;16.60;73.60
15099;DHT22;33900;53.640;9.942;2023-04-24T09:02:47;16.60;73.40
15099;DHT22;33900;53.640;9.942;2023-04-24T09:05:14;16.60;73.10
15099;DHT22;33900;53.640;9.942;2023-04-24T09:07:40;16.50;73.30
15099;DHT22;33900;53.640;9.942;2023-04-24T09:10:07;16.50;73.50
15099;DHT22;33900;53.640;9.942;2023-04-24T09:12:34;16.50;73.90
15099;DHT22;33900;53.640;9.942;2023-04-24T09:15:00;16.50;74.30
15099;DHT22;33900;53.640;9.942;2023-04-24T09:17:26;16.50;74.40
15099;DHT22;33900;53.640;9.942;2023-04-24T09:19:53;16.50;74.40
15099;DHT22;33900;53.640;9.942;2023-04-24T09:22:19;16.50;74.30
15099;DHT22;33900;53.640;9.942;2023-04-24T09:24:45;16.40;74.10
15099;DHT22;33900;53.640;9.942;2023-04-24T09:27:11;16.50;74.30
15099;DHT22;33900;53.640;9.942;2023-04-24T09:29:57;16.40;74.20
15099;DHT22;33900;53.640;9.942;2023-04-24T09:32:23;16.40;74.00
15099;DHT22;33900;53.640;9.942;2023-04-24T09:37:35;16.40;73.80
15099;DHT22;33900;53.640;9.942;2023-04-24T09:40:08;16.30;73.20
15099;DHT22;33900;53.640;9.942;2023-04-24T09:42:33;16.30;73.40
15099;DHT22;33900;53.640;9.942;2023-04-24T09:45:01;16.30;73.70
15099;DHT22;33900;53.640;9.942;2023-04-24T09:47:35;16.30;73.70
15099;DHT22;33900;53.640;9.942;2023-04-24T09:50:14;16.30;73.80
15099;DHT22;33900;53.640;9.942;2023-04-24T09:52:41;16.30;73.60
15099;DHT22;33900;53.640;9.942;2023-04-24T09:55:15;16.30;73.70
15099;DHT22;33900;53.640;9.942;2023-04-24T10:00:25;16.30;74.60
15099;DHT22;33900;53.640;9.942;2023-04-24T10:03:01;16.30;73.80
15099;DHT22;33900;53.640;9.942;2023-04-24T10:05:32;16.30;73.90
15099;DHT22;33900;53.640;9.942;2023-04-24T10:07:59;16.30;73.90
15099;DHT22;33900;53.640;9.942;2023-04-24T10:10:25;16.30;73.70
15099;DHT22;33900;53.640;9.942;2023-04-24T10:12:51;16.30;73.40
15099;DHT22;33900;53.640;9.942;2023-04-24T10:15:20;16.20;73.20
15099;DHT22;33900;53.640;9.942;2023-04-24T10:17:49;16.20;73.10
15099;DHT22;33900;53.640;9.942;2023-04-24T10:20:18;16.30;73.20
15099;DHT22;33900;53.640;9.942;2023-04-24T10:22:45;16.20;73.10
15099;DHT22;33900;53.640;9.942;2023-04-24T10:25:11;16.20;73.30
15099;DHT22;33900;53.640;9.942;2023-04-24T10:27:37;16.20;73.20
15099;DHT22;33900;53.640;9.942;2023-04-24T10:30:03;16.20;73.20
15099;DHT22;33900;53.640;9.942;2023-04-24T10:32:29;16.20;73.20
15099;DHT22;33900;53.640;9.942;2023-04-24T10:34:55;16.20;73.20
15099;DHT22;33900;53.640;9.942;2023-04-24T10:37:21;16.20;73.40
15099;DHT22;33900;53.640;9.942;2023-04-24T10:39:48;16.20;73.30
15099;DHT22;33900;53.640;9.942;2023-04-24T10:42:17;16.20;73.40
15099;DHT22;33900;53.640;9.942;2023-04-24T10:44:47;16.20;73.30
15099;DHT22;33900;53.640;9.942;2023-04-24T10:47:17;16.30;73.40
15099;DHT22;33900;53.640;9.942;2023-04-24T10:49:43;16.30;73.50
15099;DHT22;33900;53.640;9.942;2023-04-24T10:52:08;16.20;73.40
15099;DHT22;33900;53.640;9.942;2023-04-24T10:54:41;16.20;73.30
15099;DHT22;33900;53.640;9.942;2023-04-24T10:59:48;16.20;72.90
15099;DHT22;33900;53.640;9.942;2023-04-24T11:02:14;16.30;73.10
15099;DHT22;33900;53.640;9.942;2023-04-24T11:04:43;16.30;72.80
15099;DHT22;33900;53.640;9.942;2023-04-24T11:07:10;16.20;72.90
15099;DHT22;33900;53.640;9.942;2023-04-24T11:09:36;16.20;72.70
15099;DHT22;33900;53.640;9.942;2023-04-24T11:12:11;16.20;72.30
15099;DHT22;33900;53.640;9.942;2023-04-24T11:17:30;16.30;72.70
15099;DHT22;33900;53.640;9.942;2023-04-24T11:20:05;16.30;72.40
15099;DHT22;33900;53.640;9.942;2023-04-24T11:22:38;16.30;71.70
15099;DHT22;33900;53.640;9.942;2023-04-24T11:25:05;16.30;71.60
15099;DHT22;33900;53.640;9.942;2023-04-24T11:27:38;16.30;71.70
15099;DHT22;33900;53.640;9.942;2023-04-24T11:30:05;16.30;72.00
15099;DHT22;33900;53.640;9.942;2023-04-24T11:32:41;16.30;72.20
15099;DHT22;33900;53.640;9.942;2023-04-24T11:35:14;16.40;72.40
15099;DHT22;33900;53.640;9.942;2023-04-24T11:37:41;16.40;72.60
15099;DHT22;33900;53.640;9.942;2023-04-24T11:40:08;16.40;71.30
15099;DHT22;33900;53.640;9.942;2023-04-24T11:42:34;16.40;71.20
15099;DHT22;33900;53.640;9.942;2023-04-24T11:45:00;16.40;71.20
15099;DHT22;33900;53.640;9.942;2023-04-24T11:47:31;16.40;71.50
15099;DHT22;33900;53.640;9.942;2023-04-24T11:49:59;16.40;71.50
15099;DHT22;33900;53.640;9.942;2023-04-24T11:52:25;16.50;71.10
15099;DHT22;33900;53.640;9.942;2023-04-24T11:54:51;16.40;70.80
15099;DHT22;33900;53.640;9.942;2023-04-24T11:57:18;16.50;71.00
15099;DHT22;33900;53.640;9.942;2023-04-24T11:59:44;16.50;71.00
15099;DHT22;33900;53.640;9.942;2023-04-24T12:02:19;16.50;71.00
15099;DHT22;33900;53.640;9.942;2023-04-24T12:04:45;16.50;71.20
15099;DHT22;33900;53.640;9.942;2023-04-24T12:07:11;16.50;71.10
15099;DHT22;33900;53.640;9.942;2023-04-24T12:09:40;16.50;70.80
15099;DHT22;33900;53.640;9.942;2023-04-24T12:12:07;16.50;70.80
15099;DHT22;33900;53.640;9.942;2023-04-24T12:14:33;16.50;70.90
15099;DHT22;33900;53.640;9.942;2023-04-24T12:16:58;16.50;71.10
15099;DHT22;33900;53.640;9.942;2023-04-24T12:19:24;16.50;71.00
15099;DHT22;33900;53.640;9.942;2023-04-24T12:22:03;16.50;70.70
15099;DHT22;33900;53.640;9.942;2023-04-24T12:24:30;16.50;70.80
15099;DHT22;33900;53.640;9.942;2023-04-24T12:26:56;16.50;70.80
15099;DHT22;33900;53.640;9.942;2023-04-24T12:29:22;16.50;70.80
15099;DHT22;33900;53.640;9.942;2023-04-24T12:31:48;16.60;70.70
15099;DHT22;33900;53.640;9.942;2023-04-24T12:34:20;16.50;70.50
15099;DHT22;33900;53.640;9.942;2023-04-24T12:36:46;16.50;70.20
15099;DHT22;33900;53.640;9.942;2023-04-24T12:39:19;16.50;70.10
15099;DHT22;33900;53.640;9.942;2023-04-24T12:41:57;16.50;70.00
15099;DHT22;33900;53.640;9.942;2023-04-24T12:44:31;16.50;70.20
15099;DHT22;33900;53.640;9.942;2023-04-24T12:46:58;16.40;69.40
15099;DHT22;33900;53.640;9.942;2023-04-24T12:49:25;16.40;69.70
15099;DHT22;33900;53.640;9.942;2023-04-24T12:51:51;16.40;69.70
15099;DHT22;33900;53.640;9.942;2023-04-24T12:54:16;16.40;70.00
15099;DHT22;33900;53.640;9.942;2023-04-24T12:56:43;16.40;70.10
15099;DHT22;33900;53.640;9.942;2023-04-24T12:59:08;16.30;70.10
15099;DHT22;33900;53.640;9.942;2023-04-24T13:01:34;16.30;70.20
15099;DHT22;33900;53.640;9.942;2023-04-24T13:03:59;16.30;70.20
15099;DHT22;33900;53.640;9.942;2023-04-24T13:06:25;16.30;70.40
15099;DHT22;33900;53.640;9.942;2023-04-24T13:08:51;16.20;70.40
15099;DHT22;33900;53.640;9.942;2023-04-24T13:11:17;16.20;70.50
15099;DHT22;33900;53.640;9.942;2023-04-24T13:13:43;16.20;70.30
15099;DHT22;33900;53.640;9.942;2023-04-24T13:16:09;16.20;70.40
15099;DHT22;33900;53.640;9.942;2023-04-24T13:18:35;16.20;70.40
15099;DHT22;33900;53.640;9.942;2023-04-24T13:21:01;16.20;70.40
15099;DHT22;33900;53.640;9.942;2023-04-24T13:23:27;16.10;70.30
15099;DHT22;33900;53.640;9.942;2023-04-24T13:25:53;16.10;70.30
15099;DHT22;33900;53.640;9.942;2023-04-24T13:28:23;16.10;70.30
15099;DHT22;33900;53.640;9.942;2023-04-24T13:30:48;16.10;70.40
15099;DHT22;33900;53.640;9.942;2023-04-24T13:33:14;16.10;70.40
15099;DHT22;33900;53.640;9.942;2023-04-24T13:35:40;16.10;70.50
15099;DHT22;33900;53.640;9.942;2023-04-24T13:38:06;16.00;70.40
15099;DHT22;33900;53.640;9.942;2023-04-24T13:40:32;16.10;70.50
15099;DHT22;33900;53.640;9.942;2023-04-24T13:42:59;16.00;70.60
15099;DHT22;33900;53.640;9.942;2023-04-24T13:45:26;16.00;70.80
15099;DHT22;33900;53.640;9.942;2023-04-24T13:47:52;16.00;70.80
15099;DHT22;33900;53.640;9.942;2023-04-24T13:50:19;16.00;70.60
15099;DHT22;33900;53.640;9.942;2023-04-24T13:52:45;16.00;70.80
15099;DHT22;33900;53.640;9.942;2023-04-24T13:55:11;15.90;70.80
15099;DHT22;33900;53.640;9.942;2023-04-24T13:57:37;15.90;70.90
15099;DHT22;33900;53.640;9.942;2023-04-24T14:00:03;15.90;71.10
15099;DHT22;33900;53.640;9.942;2023-04-24T14:02:32;15.90;71.30
15099;DHT22;33900;53.640;9.942;2023-04-24T14:04:58;15.90;71.40
15099;DHT22;33900;53.640;9.942;2023-04-24T14:07:24;15.90;71.60
15099;DHT22;33900;53.640;9.942;2023-04-24T14:09:54;15.90;71.60
15099;DHT22;33900;53.640;9.942;2023-04-24T14:12:24;15.90;71.70
15099;DHT22;33900;53.640;9.942;2023-04-24T14:14:52;15.90;71.70
15099;DHT22;33900;53.640;9.942;2023-04-24T14:17:21;16.00;71.80
15099;DHT22;33900;53.640;9.942;2023-04-24T14:19:49;15.90;71.70
15099;DHT22;33900;53.640;9.942;2023-04-24T14:22:15;15.90;71.70
15099;DHT22;33900;53.640;9.942;2023-04-24T14:24:42;15.90;71.80
15099;DHT22;33900;53.640;9.942;2023-04-24T14:27:10;16.00;71.90
15099;DHT22;33900;53.640;9.942;2023-04-24T14:29:36;15.90;72.10
15099;DHT22;33900;53.640;9.942;2023-04-24T14:32:02;15.90;72.30
15099;DHT22;33900;53.640;9.942;2023-04-24T14:34:28;15.90;73.90
15099;DHT22;33900;53.640;9.942;2023-04-24T14:36:53;15.80;73.60
15099;DHT22;33900;53.640;9.942;2023-04-24T14:39:19;15.80;74.30
15099;DHT22;33900;53.640;9.942;2023-04-24T14:41:45;15.70;75.40
15099;DHT22;33900;53.640;9.942;2023-04-24T14:44:12;15.70;76.00
15099;DHT22;33900;53.640;9.942;2023-04-24T14:46:38;15.60;76.80
15099;DHT22;33900;53.640;9.942;2023-04-24T14:49:04;15.50;76.50
15099;DHT22;33900;53.640;9.942;2023-04-24T14:51:30;15.50;76.80
15099;DHT22;33900;53.640;9.942;2023-04-24T14:53:56;15.40;77.40
15099;DHT22;33900;53.640;9.942;2023-04-24T14:56:22;15.40;77.70
15099;DHT22;33900;53.640;9.942;2023-04-24T14:58:48;15.40;77.80
15099;DHT22;33900;53.640;9.942;2023-04-24T15:01:14;15.30;78.10
15099;DHT22;33900;53.640;9.942;2023-04-24T15:03:40;15.30;78.60
15099;DHT22;33900;53.640;9.942;2023-04-24T15:06:05;15.30;79.50
15099;DHT22;33900;53.640;9.942;2023-04-24T15:08:31;15.20;79.60
15099;DHT22;33900;53.640;9.942;2023-04-24T15:10:57;15.20;79.60
15099;DHT22;33900;53.640;9.942;2023-04-24T15:13:22;15.20;80.00
15099;DHT22;33900;53.640;9.942;2023-04-24T15:15:48;15.20;80.60
15099;DHT22;33900;53.640;9.942;2023-04-24T15:18:14;15.10;80.50
15099;DHT22;33900;53.640;9.942;2023-04-24T15:20:39;15.00;80.50
15099;DHT22;33900;53.640;9.942;2023-04-24T15:23:07;15.00;80.50
15099;DHT22;33900;53.640;9.942;2023-04-24T15:25:33;15.00;80.80
15099;DHT22;33900;53.640;9.942;2023-04-24T15:28:01;14.90;81.30
15099;DHT22;33900;53.640;9.942;2023-04-24T15:30:28;14.90;81.20
15099;DHT22;33900;53.640;9.942;2023-04-24T15:32:54;14.90;81.90
15099;DHT22;33900;53.640;9.942;2023-04-24T15:35:20;14.80;82.20
15099;DHT22;33900;53.640;9.942;2023-04-24T15:37:47;14.80;82.10
15099;DHT22;33900;53.640;9.942;2023-04-24T15:40:13;14.80;82.50
15099;DHT22;33900;53.640;9.942;2023-04-24T15:42:41;14.80;82.50
15099;DHT22;33900;53.640;9.942;2023-04-24T15:45:07;14.70;82.60